»·PEaware :: N112PC KAPA-KSAF

N112PC :: KAPA-KSAF

FLIGHT INFORMATION

Flight Status: Arrived
Operator: Privately registered:
United States
More flights under this callsign
Pilot: Gabor H. (24209)
Aircraft: PILATUS PC-12 EAGLE
(PC12)
More flights by this aircraft type
Origin: KAPA Centennial
United States
Destination: KSAF Santa Fe Mun
United States
More flights between these airports :: More routes between these airports
Route: PIKES1 ALS
File this flight plan on PilotEdge
Remarks:
Altitude:
(Current/Filed)
26,000ft
Speed:
(Current/Filed)
260kts
Departed: 07-Jun-19 11:07 AM
Arrived: 07-Jun-19 12:10 PM
Distance/Time
Traveled:
244nm/1:03
Distance/Time
To Go:
Arrived

Flight Plot

Page will automatically refresh every two minutes.

Flight plan parsing failed; only flown route is shown


Map Options




Map Legend


Flown Route
Filed Route
Departure Airport
Arrival Airport
Navaid (VOR, NDB)
Fix

Horizontal Profiles

Position Reports

Time Latitude Longitude Heading Altitude Ground
Speed
07-Jun-19 10:45 39.580327 -104.847509 177 5886ft 0kts
07-Jun-19 10:46 39.580327 -104.847509 177 5886ft 0kts
07-Jun-19 10:47 39.580327 -104.847509 177 5886ft 0kts
07-Jun-19 10:48 39.580327 -104.847509 177 5886ft 0kts
07-Jun-19 10:49 39.580327 -104.847509 177 5886ft 0kts
07-Jun-19 10:50 39.580327 -104.847509 177 5886ft 0kts
07-Jun-19 10:51 39.580327 -104.847509 177 5886ft 0kts
07-Jun-19 10:52 39.580327 -104.847509 177 5886ft 0kts
07-Jun-19 10:53 39.580327 -104.847509 177 5886ft 0kts
07-Jun-19 10:54 39.580327 -104.847509 177 5886ft 0kts
07-Jun-19 10:55 39.580327 -104.847509 177 5886ft 0kts
07-Jun-19 10:56 39.580327 -104.847509 177 5886ft 0kts
07-Jun-19 10:57 39.580327 -104.847509 177 5886ft 0kts
07-Jun-19 10:58 39.580327 -104.847509 177 5886ft 0kts
07-Jun-19 10:59 39.580326 -104.847508 177 5886ft 0kts
07-Jun-19 11:00 39.580326 -104.847508 177 5886ft 0kts
07-Jun-19 11:01 39.580145 -104.848186 298 5886ft 7kts
07-Jun-19 11:02 39.581593 -104.849970 357 5886ft 10kts
07-Jun-19 11:03 39.584018 -104.850073 352 5886ft 4kts
07-Jun-19 11:04 39.584093 -104.850174 288 5886ft 0kts
07-Jun-19 11:05 39.583552 -104.851453 176 5886ft 25kts
07-Jun-19 11:06 39.550954 -104.850140 178 6890ft 156kts
07-Jun-19 11:07 39.503711 -104.846037 178 8195ft 176kts
07-Jun-19 11:08 39.455664 -104.844951 201 9701ft 170kts
07-Jun-19 11:09 39.412245 -104.873644 209 11217ft 186kts
07-Jun-19 11:10 39.365035 -104.906147 210 12734ft 196kts
07-Jun-19 11:11 39.315189 -104.941090 210 14230ft 204kts
07-Jun-19 11:12 39.264476 -104.977388 209 15762ft 210kts
07-Jun-19 11:13 39.213284 -105.013003 209 17237ft 202kts
07-Jun-19 11:14 39.166333 -105.045398 209 18714ft 184kts
07-Jun-19 11:15 39.119863 -105.074355 206 20234ft 187kts
07-Jun-19 11:16 39.072615 -105.102662 206 21761ft 186kts
07-Jun-19 11:17 39.026996 -105.129487 207 23264ft 174kts
07-Jun-19 11:18 38.979615 -105.157169 207 24456ft 197kts
07-Jun-19 11:19 38.928266 -105.187539 205 25532ft 206kts
07-Jun-19 11:20 38.873800 -105.219511 206 26069ft 225kts
07-Jun-19 11:21 38.815156 -105.254891 206 26098ft 238kts
07-Jun-19 11:22 38.753494 -105.289925 206 26092ft 245kts
07-Jun-19 11:23 38.691214 -105.326397 206 26088ft 245kts
07-Jun-19 11:24 38.629094 -105.362657 206 26075ft 245kts
07-Jun-19 11:25 38.566288 -105.397079 201 26079ft 246kts
07-Jun-19 11:26 38.500470 -105.422035 198 26081ft 247kts
07-Jun-19 11:27 38.434098 -105.445288 198 26085ft 248kts
07-Jun-19 11:28 38.367515 -105.468330 197 26088ft 248kts
07-Jun-19 11:29 38.300671 -105.491386 197 26092ft 248kts
07-Jun-19 11:30 38.234179 -105.514273 197 26131ft 247kts
07-Jun-19 11:31 38.167623 -105.537153 197 26138ft 248kts
07-Jun-19 11:32 38.100957 -105.560040 197 26144ft 248kts
07-Jun-19 11:33 38.033246 -105.583319 197 26126ft 258kts
07-Jun-19 11:34 37.965057 -105.606472 198 26147ft 251kts
07-Jun-19 11:35 37.897493 -105.629339 198 26148ft 249kts
07-Jun-19 11:36 37.830549 -105.652159 198 26159ft 249kts
07-Jun-19 11:37 37.764499 -105.674610 198 26176ft 248kts
07-Jun-19 11:38 37.697606 -105.697298 198 26178ft 249kts
07-Jun-19 11:39 37.630693 -105.719949 198 26183ft 249kts
07-Jun-19 11:40 37.563481 -105.742667 198 26187ft 249kts
07-Jun-19 11:41 37.496364 -105.765316 198 26189ft 250kts
07-Jun-19 11:42 37.429198 -105.787966 198 26190ft 250kts
07-Jun-19 11:43 37.361800 -105.809990 194 26190ft 251kts
07-Jun-19 11:44 37.292097 -105.823547 191 26187ft 256kts
07-Jun-19 11:45 37.221736 -105.835150 191 26189ft 253kts
07-Jun-19 11:46 37.151854 -105.846445 191 26189ft 253kts
07-Jun-19 11:47 37.082021 -105.857674 190 26190ft 253kts
07-Jun-19 11:48 37.012091 -105.868872 190 26195ft 253kts
07-Jun-19 11:49 36.942040 -105.880068 190 26203ft 253kts
07-Jun-19 11:50 36.871985 -105.891248 190 26152ft 256kts
07-Jun-19 11:51 36.797218 -105.903200 190 24712ft 275kts
07-Jun-19 11:52 36.721420 -105.915164 190 23215ft 274kts
07-Jun-19 11:53 36.645814 -105.927118 190 21717ft 274kts
07-Jun-19 11:54 36.570751 -105.938959 190 20228ft 272kts
07-Jun-19 11:55 36.494577 -105.951209 190 18716ft 276kts
07-Jun-19 11:56 36.418194 -105.963054 190 17219ft 276kts
07-Jun-19 11:57 36.342429 -105.975140 190 15720ft 271kts
07-Jun-19 11:58 36.267506 -105.986912 189 14294ft 274kts
07-Jun-19 11:59 36.190737 -105.994382 185 12897ft 276kts
07-Jun-19 12:00 36.114759 -106.000956 185 11888ft 272kts
07-Jun-19 12:01 36.040137 -106.007645 184 10967ft 266kts
07-Jun-19 12:02 35.966288 -106.013617 184 10169ft 265kts
07-Jun-19 12:03 35.895375 -106.019915 185 9360ft 238kts
07-Jun-19 12:04 35.832321 -106.026345 185 8823ft 221kts
07-Jun-19 12:05 35.771863 -106.032786 186 8518ft 214kts
07-Jun-19 12:06 35.713018 -106.029344 167 8501ft 213kts
07-Jun-19 12:07 35.666835 -106.046347 226 8054ft 159kts
07-Jun-19 12:08 35.636869 -106.071628 215 6864ft 101kts
07-Jun-19 12:09 35.621366 -106.084873 216 6351ft 26kts
07-Jun-19 12:10 35.619754 -106.084831 39 6351ft 14kts
07-Jun-19 12:11 35.619386 -106.083105 214 6351ft 0kts
07-Jun-19 12:12 35.619386 -106.083105 214 6351ft 0kts
07-Jun-19 12:13 35.619386 -106.083105 214 6351ft 0kts

Navigation Log

Ident Type
Flight plan parsing failed, navigation log unavailable